sensor_id;sensor_type;location;lat;lon;timestamp;P1;durP1;ratioP1;P2;durP2;ratioP2
16760;SDS011;8498;52.516;13.790;2023-03-01T00:03:56;35.13;;;13.67;;
16760;SDS011;8498;52.516;13.790;2023-03-01T00:09:21;29.40;;;12.73;;
16760;SDS011;8498;52.516;13.790;2023-03-01T00:14:43;28.10;;;13.10;;
16760;SDS011;8498;52.516;13.790;2023-03-01T00:20:06;38.87;;;15.07;;
16760;SDS011;8498;52.516;13.790;2023-03-01T00:25:32;38.87;;;12.87;;
16760;SDS011;8498;52.516;13.790;2023-03-01T00:30:54;31.93;;;13.23;;
16760;SDS011;8498;52.516;13.790;2023-03-01T00:36:16;27.90;;;11.57;;
16760;SDS011;8498;52.516;13.790;2023-03-01T00:41:39;29.93;;;11.77;;
16760;SDS011;8498;52.516;13.790;2023-03-01T00:47:03;25.73;;;11.63;;
16760;SDS011;8498;52.516;13.790;2023-03-01T00:52:25;29.63;;;11.57;;
16760;SDS011;8498;52.516;13.790;2023-03-01T00:57:48;20.00;;;10.23;;
16760;SDS011;8498;52.516;13.790;2023-03-01T01:03:11;21.57;;;10.10;;
16760;SDS011;8498;52.516;13.790;2023-03-01T01:08:33;19.20;;;9.67;;
16760;SDS011;8498;52.516;13.790;2023-03-01T01:13:56;18.40;;;9.67;;
16760;SDS011;8498;52.516;13.790;2023-03-01T01:19:19;25.63;;;10.37;;
16760;SDS011;8498;52.516;13.790;2023-03-01T01:24:43;16.83;;;8.60;;
16760;SDS011;8498;52.516;13.790;2023-03-01T01:30:05;17.40;;;8.70;;
16760;SDS011;8498;52.516;13.790;2023-03-01T01:35:28;22.87;;;8.63;;
16760;SDS011;8498;52.516;13.790;2023-03-01T01:40:50;16.67;;;7.83;;
16760;SDS011;8498;52.516;13.790;2023-03-01T01:51:52;16.57;;;8.00;;
16760;SDS011;8498;52.516;13.790;2023-03-01T01:57:32;19.23;;;6.87;;
16760;SDS011;8498;52.516;13.790;2023-03-01T02:02:59;15.33;;;7.13;;
16760;SDS011;8498;52.516;13.790;2023-03-01T02:08:26;16.10;;;6.83;;
16760;SDS011;8498;52.516;13.790;2023-03-01T02:13:52;11.90;;;6.70;;
16760;SDS011;8498;52.516;13.790;2023-03-01T02:19:20;14.30;;;6.37;;
16760;SDS011;8498;52.516;13.790;2023-03-01T02:25:11;15.50;;;7.20;;
16760;SDS011;8498;52.516;13.790;2023-03-01T02:30:41;12.77;;;6.80;;
16760;SDS011;8498;52.516;13.790;2023-03-01T02:36:30;15.33;;;5.87;;
16760;SDS011;8498;52.516;13.790;2023-03-01T02:41:59;10.67;;;6.27;;
16760;SDS011;8498;52.516;13.790;2023-03-01T02:47:26;14.53;;;6.53;;
16760;SDS011;8498;52.516;13.790;2023-03-01T02:53:00;17.70;;;7.10;;
16760;SDS011;8498;52.516;13.790;2023-03-01T02:58:30;13.87;;;6.07;;
16760;SDS011;8498;52.516;13.790;2023-03-01T03:03:52;22.70;;;7.27;;
16760;SDS011;8498;52.516;13.790;2023-03-01T03:09:16;16.20;;;6.10;;
16760;SDS011;8498;52.516;13.790;2023-03-01T03:14:40;14.27;;;6.80;;
16760;SDS011;8498;52.516;13.790;2023-03-01T03:20:03;10.30;;;6.17;;
16760;SDS011;8498;52.516;13.790;2023-03-01T03:25:27;11.10;;;5.37;;
16760;SDS011;8498;52.516;13.790;2023-03-01T03:30:50;25.43;;;6.40;;
16760;SDS011;8498;52.516;13.790;2023-03-01T03:36:16;13.67;;;6.93;;
16760;SDS011;8498;52.516;13.790;2023-03-01T03:41:40;7.93;;;5.40;;
16760;SDS011;8498;52.516;13.790;2023-03-01T03:47:02;10.07;;;5.07;;
16760;SDS011;8498;52.516;13.790;2023-03-01T03:52:25;11.03;;;4.90;;
16760;SDS011;8498;52.516;13.790;2023-03-01T03:57:47;9.97;;;5.70;;
16760;SDS011;8498;52.516;13.790;2023-03-01T04:03:16;10.13;;;4.93;;
16760;SDS011;8498;52.516;13.790;2023-03-01T04:08:40;9.53;;;5.10;;
16760;SDS011;8498;52.516;13.790;2023-03-01T04:14:03;16.83;;;7.53;;
16760;SDS011;8498;52.516;13.790;2023-03-01T04:19:26;17.83;;;7.23;;
16760;SDS011;8498;52.516;13.790;2023-03-01T04:24:49;13.23;;;7.00;;
16760;SDS011;8498;52.516;13.790;2023-03-01T04:30:11;14.20;;;7.07;;
16760;SDS011;8498;52.516;13.790;2023-03-01T04:35:36;17.90;;;7.17;;
16760;SDS011;8498;52.516;13.790;2023-03-01T04:40:59;9.13;;;4.80;;
16760;SDS011;8498;52.516;13.790;2023-03-01T04:46:21;19.60;;;5.87;;
16760;SDS011;8498;52.516;13.790;2023-03-01T04:51:44;11.13;;;6.07;;
16760;SDS011;8498;52.516;13.790;2023-03-01T04:57:06;10.13;;;5.37;;
16760;SDS011;8498;52.516;13.790;2023-03-01T05:02:29;12.77;;;5.83;;
16760;SDS011;8498;52.516;13.790;2023-03-01T05:07:52;9.10;;;5.40;;
16760;SDS011;8498;52.516;13.790;2023-03-01T05:13:15;14.27;;;6.77;;
16760;SDS011;8498;52.516;13.790;2023-03-01T05:18:43;15.90;;;7.63;;
16760;SDS011;8498;52.516;13.790;2023-03-01T05:24:05;11.37;;;6.53;;
16760;SDS011;8498;52.516;13.790;2023-03-01T05:29:32;17.40;;;6.27;;
16760;SDS011;8498;52.516;13.790;2023-03-01T05:34:56;10.87;;;6.80;;
16760;SDS011;8498;52.516;13.790;2023-03-01T05:40:19;11.27;;;6.20;;
16760;SDS011;8498;52.516;13.790;2023-03-01T05:45:45;10.87;;;5.83;;
16760;SDS011;8498;52.516;13.790;2023-03-01T05:51:08;14.33;;;6.57;;
16760;SDS011;8498;52.516;13.790;2023-03-01T05:56:30;12.47;;;6.40;;
16760;SDS011;8498;52.516;13.790;2023-03-01T06:01:54;16.23;;;6.90;;
16760;SDS011;8498;52.516;13.790;2023-03-01T06:07:17;13.70;;;7.20;;
16760;SDS011;8498;52.516;13.790;2023-03-01T06:12:40;12.03;;;6.63;;
16760;SDS011;8498;52.516;13.790;2023-03-01T06:18:03;16.67;;;8.43;;
16760;SDS011;8498;52.516;13.790;2023-03-01T06:23:25;18.63;;;8.13;;
16760;SDS011;8498;52.516;13.790;2023-03-01T06:28:48;17.57;;;8.43;;
16760;SDS011;8498;52.516;13.790;2023-03-01T06:34:10;17.87;;;9.37;;
16760;SDS011;8498;52.516;13.790;2023-03-01T06:39:35;26.07;;;11.00;;
16760;SDS011;8498;52.516;13.790;2023-03-01T06:44:57;17.97;;;8.93;;
16760;SDS011;8498;52.516;13.790;2023-03-01T06:50:20;22.90;;;9.67;;
16760;SDS011;8498;52.516;13.790;2023-03-01T06:55:43;25.57;;;10.33;;
16760;SDS011;8498;52.516;13.790;2023-03-01T07:01:06;19.33;;;9.77;;
16760;SDS011;8498;52.516;13.790;2023-03-01T07:06:29;22.43;;;9.90;;
16760;SDS011;8498;52.516;13.790;2023-03-01T07:11:52;17.57;;;9.03;;
16760;SDS011;8498;52.516;13.790;2023-03-01T07:17:14;20.13;;;9.20;;
16760;SDS011;8498;52.516;13.790;2023-03-01T07:22:39;19.07;;;7.93;;
16760;SDS011;8498;52.516;13.790;2023-03-01T07:28:03;17.77;;;7.63;;
16760;SDS011;8498;52.516;13.790;2023-03-01T07:33:25;11.50;;;6.27;;
16760;SDS011;8498;52.516;13.790;2023-03-01T07:38:47;18.13;;;8.30;;
16760;SDS011;8498;52.516;13.790;2023-03-01T07:44:10;15.57;;;8.30;;
16760;SDS011;8498;52.516;13.790;2023-03-01T07:49:32;15.57;;;8.50;;
16760;SDS011;8498;52.516;13.790;2023-03-01T07:54:54;17.70;;;8.03;;
16760;SDS011;8498;52.516;13.790;2023-03-01T08:00:17;15.63;;;8.80;;
16760;SDS011;8498;52.516;13.790;2023-03-01T08:05:39;13.77;;;8.63;;
16760;SDS011;8498;52.516;13.790;2023-03-01T08:11:03;16.30;;;7.37;;
16760;SDS011;8498;52.516;13.790;2023-03-01T08:16:27;15.47;;;7.60;;
16760;SDS011;8498;52.516;13.790;2023-03-01T08:21:50;14.50;;;7.27;;
16760;SDS011;8498;52.516;13.790;2023-03-01T08:27:16;16.63;;;7.90;;
16760;SDS011;8498;52.516;13.790;2023-03-01T08:32:39;16.83;;;8.73;;
16760;SDS011;8498;52.516;13.790;2023-03-01T08:38:02;16.60;;;7.60;;
16760;SDS011;8498;52.516;13.790;2023-03-01T08:43:24;17.10;;;7.57;;
16760;SDS011;8498;52.516;13.790;2023-03-01T08:48:47;15.33;;;7.27;;
16760;SDS011;8498;52.516;13.790;2023-03-01T08:54:11;15.33;;;6.93;;
16760;SDS011;8498;52.516;13.790;2023-03-01T08:59:37;12.50;;;6.57;;
16760;SDS011;8498;52.516;13.790;2023-03-01T09:04:59;17.13;;;6.30;;
16760;SDS011;8498;52.516;13.790;2023-03-01T09:10:21;15.47;;;6.10;;
16760;SDS011;8498;52.516;13.790;2023-03-01T09:15:46;12.37;;;5.30;;
16760;SDS011;8498;52.516;13.790;2023-03-01T09:26:33;11.03;;;5.30;;
16760;SDS011;8498;52.516;13.790;2023-03-01T09:31:56;9.47;;;3.80;;
16760;SDS011;8498;52.516;13.790;2023-03-01T09:37:19;11.83;;;4.43;;
16760;SDS011;8498;52.516;13.790;2023-03-01T09:54:12;9.93;;;3.97;;
16760;SDS011;8498;52.516;13.790;2023-03-01T10:11:23;9.30;;;3.30;;
16760;SDS011;8498;52.516;13.790;2023-03-01T10:16:56;7.00;;;3.80;;
16760;SDS011;8498;52.516;13.790;2023-03-01T10:22:26;4.77;;;3.00;;
16760;SDS011;8498;52.516;13.790;2023-03-01T10:27:52;6.37;;;2.87;;
16760;SDS011;8498;52.516;13.790;2023-03-01T10:33:20;8.03;;;3.47;;
16760;SDS011;8498;52.516;13.790;2023-03-01T10:38:56;6.17;;;3.27;;
16760;SDS011;8498;52.516;13.790;2023-03-01T10:50:22;6.30;;;3.33;;
16760;SDS011;8498;52.516;13.790;2023-03-01T10:55:45;5.77;;;2.77;;
16760;SDS011;8498;52.516;13.790;2023-03-01T11:06:37;3.50;;;2.30;;
16760;SDS011;8498;52.516;13.790;2023-03-01T11:12:01;3.60;;;2.27;;
16760;SDS011;8498;52.516;13.790;2023-03-01T11:17:28;6.13;;;2.30;;
16760;SDS011;8498;52.516;13.790;2023-03-01T11:23:04;4.37;;;2.50;;
16760;SDS011;8498;52.516;13.790;2023-03-01T11:28:32;7.43;;;3.80;;
16760;SDS011;8498;52.516;13.790;2023-03-01T11:34:05;3.10;;;2.40;;
16760;SDS011;8498;52.516;13.790;2023-03-01T11:39:41;8.03;;;2.90;;
16760;SDS011;8498;52.516;13.790;2023-03-01T11:45:10;4.00;;;3.13;;
16760;SDS011;8498;52.516;13.790;2023-03-01T11:50:44;4.30;;;2.33;;
16760;SDS011;8498;52.516;13.790;2023-03-01T11:56:26;4.87;;;2.50;;
16760;SDS011;8498;52.516;13.790;2023-03-01T12:13:43;2.50;;;2.07;;
16760;SDS011;8498;52.516;13.790;2023-03-01T12:19:25;4.37;;;2.10;;
16760;SDS011;8498;52.516;13.790;2023-03-01T12:36:31;7.80;;;1.97;;
16760;SDS011;8498;52.516;13.790;2023-03-01T12:47:26;2.20;;;2.00;;
16760;SDS011;8498;52.516;13.790;2023-03-01T12:53:02;3.90;;;2.40;;
16760;SDS011;8498;52.516;13.790;2023-03-01T13:04:35;4.17;;;2.70;;
16760;SDS011;8498;52.516;13.790;2023-03-01T13:10:17;4.80;;;2.17;;
16760;SDS011;8498;52.516;13.790;2023-03-01T13:15:47;3.43;;;2.23;;
16760;SDS011;8498;52.516;13.790;2023-03-01T13:21:10;5.70;;;2.37;;
16760;SDS011;8498;52.516;13.790;2023-03-01T13:26:53;3.13;;;2.13;;
16760;SDS011;8498;52.516;13.790;2023-03-01T13:32:30;4.47;;;2.47;;
16760;SDS011;8498;52.516;13.790;2023-03-01T14:00:55;4.37;;;2.47;;
16760;SDS011;8498;52.516;13.790;2023-03-01T14:06:31;5.13;;;2.50;;
16760;SDS011;8498;52.516;13.790;2023-03-01T14:23:02;4.63;;;2.30;;
16760;SDS011;8498;52.516;13.790;2023-03-01T14:28:35;4.67;;;2.30;;
16760;SDS011;8498;52.516;13.790;2023-03-01T14:34:02;2.47;;;2.10;;
16760;SDS011;8498;52.516;13.790;2023-03-01T14:39:26;4.47;;;2.27;;
16760;SDS011;8498;52.516;13.790;2023-03-01T14:44:51;2.90;;;1.90;;
16760;SDS011;8498;52.516;13.790;2023-03-01T14:55:40;2.93;;;1.70;;
16760;SDS011;8498;52.516;13.790;2023-03-01T15:01:06;3.63;;;1.97;;
16760;SDS011;8498;52.516;13.790;2023-03-01T15:06:30;6.50;;;2.03;;
16760;SDS011;8498;52.516;13.790;2023-03-01T15:11:55;3.40;;;2.00;;
16760;SDS011;8498;52.516;13.790;2023-03-01T15:22:55;3.67;;;2.17;;
16760;SDS011;8498;52.516;13.790;2023-03-01T15:28:19;2.33;;;1.73;;
16760;SDS011;8498;52.516;13.790;2023-03-01T15:33:42;3.27;;;2.10;;
16760;SDS011;8498;52.516;13.790;2023-03-01T15:50:42;2.83;;;2.10;;
16760;SDS011;8498;52.516;13.790;2023-03-01T15:56:06;4.43;;;2.40;;
16760;SDS011;8498;52.516;13.790;2023-03-01T16:01:31;3.17;;;2.37;;
16760;SDS011;8498;52.516;13.790;2023-03-01T16:06:57;3.03;;;2.10;;
16760;SDS011;8498;52.516;13.790;2023-03-01T16:12:21;3.93;;;2.60;;
16760;SDS011;8498;52.516;13.790;2023-03-01T16:17:43;4.43;;;2.40;;
16760;SDS011;8498;52.516;13.790;2023-03-01T16:23:15;2.57;;;2.07;;
16760;SDS011;8498;52.516;13.790;2023-03-01T16:28:38;5.57;;;2.07;;
16760;SDS011;8498;52.516;13.790;2023-03-01T16:34:02;3.63;;;2.10;;
16760;SDS011;8498;52.516;13.790;2023-03-01T16:39:24;2.90;;;2.07;;
16760;SDS011;8498;52.516;13.790;2023-03-01T16:44:47;3.50;;;1.97;;
16760;SDS011;8498;52.516;13.790;2023-03-01T16:50:10;4.17;;;2.27;;
16760;SDS011;8498;52.516;13.790;2023-03-01T16:55:33;16.07;;;11.13;;
16760;SDS011;8498;52.516;13.790;2023-03-01T17:00:55;15.43;;;11.53;;
16760;SDS011;8498;52.516;13.790;2023-03-01T17:06:19;9.13;;;5.60;;
16760;SDS011;8498;52.516;13.790;2023-03-01T17:11:44;4.83;;;3.63;;
16760;SDS011;8498;52.516;13.790;2023-03-01T17:17:10;5.07;;;3.10;;
16760;SDS011;8498;52.516;13.790;2023-03-01T17:22:33;3.93;;;2.83;;
16760;SDS011;8498;52.516;13.790;2023-03-01T17:27:56;8.90;;;4.80;;
16760;SDS011;8498;52.516;13.790;2023-03-01T17:33:19;9.70;;;5.20;;
16760;SDS011;8498;52.516;13.790;2023-03-01T17:38:42;6.77;;;3.47;;
16760;SDS011;8498;52.516;13.790;2023-03-01T17:44:04;9.87;;;5.20;;
16760;SDS011;8498;52.516;13.790;2023-03-01T17:49:27;8.57;;;4.47;;
16760;SDS011;8498;52.516;13.790;2023-03-01T17:54:50;13.93;;;5.80;;
16760;SDS011;8498;52.516;13.790;2023-03-01T18:00:13;9.27;;;4.40;;
16760;SDS011;8498;52.516;13.790;2023-03-01T18:05:37;7.73;;;4.37;;
16760;SDS011;8498;52.516;13.790;2023-03-01T18:10:59;12.77;;;5.67;;
16760;SDS011;8498;52.516;13.790;2023-03-01T18:16:22;14.27;;;5.83;;
16760;SDS011;8498;52.516;13.790;2023-03-01T18:21:45;15.23;;;7.10;;
16760;SDS011;8498;52.516;13.790;2023-03-01T18:27:07;15.70;;;7.07;;
16760;SDS011;8498;52.516;13.790;2023-03-01T18:32:30;12.83;;;7.73;;
16760;SDS011;8498;52.516;13.790;2023-03-01T18:37:52;17.17;;;8.43;;
16760;SDS011;8498;52.516;13.790;2023-03-01T18:43:15;13.23;;;6.50;;
16760;SDS011;8498;52.516;13.790;2023-03-01T18:48:37;15.03;;;6.27;;
16760;SDS011;8498;52.516;13.790;2023-03-01T18:54:00;13.20;;;7.00;;
16760;SDS011;8498;52.516;13.790;2023-03-01T18:59:26;13.70;;;6.23;;
16760;SDS011;8498;52.516;13.790;2023-03-01T19:04:49;21.17;;;8.43;;
16760;SDS011;8498;52.516;13.790;2023-03-01T19:10:12;18.47;;;8.37;;
16760;SDS011;8498;52.516;13.790;2023-03-01T19:15:35;18.13;;;9.57;;
16760;SDS011;8498;52.516;13.790;2023-03-01T19:21:01;13.87;;;7.17;;
16760;SDS011;8498;52.516;13.790;2023-03-01T19:26:26;12.20;;;6.27;;
16760;SDS011;8498;52.516;13.790;2023-03-01T19:31:49;10.47;;;4.50;;
16760;SDS011;8498;52.516;13.790;2023-03-01T19:37:12;13.70;;;7.20;;
16760;SDS011;8498;52.516;13.790;2023-03-01T19:42:35;12.13;;;6.07;;
16760;SDS011;8498;52.516;13.790;2023-03-01T19:47:57;11.17;;;6.67;;
16760;SDS011;8498;52.516;13.790;2023-03-01T19:53:20;14.57;;;8.13;;
16760;SDS011;8498;52.516;13.790;2023-03-01T19:58:43;15.63;;;8.30;;
16760;SDS011;8498;52.516;13.790;2023-03-01T20:04:05;13.00;;;7.70;;
16760;SDS011;8498;52.516;13.790;2023-03-01T20:09:27;13.43;;;8.20;;
16760;SDS011;8498;52.516;13.790;2023-03-01T20:14:50;22.23;;;10.90;;
16760;SDS011;8498;52.516;13.790;2023-03-01T20:20:16;30.73;;;13.87;;
16760;SDS011;8498;52.516;13.790;2023-03-01T20:25:39;32.83;;;16.13;;
16760;SDS011;8498;52.516;13.790;2023-03-01T20:31:08;35.60;;;17.60;;
16760;SDS011;8498;52.516;13.790;2023-03-01T20:36:32;37.33;;;17.60;;
16760;SDS011;8498;52.516;13.790;2023-03-01T20:41:56;44.57;;;17.53;;
16760;SDS011;8498;52.516;13.790;2023-03-01T20:47:18;38.83;;;18.37;;
16760;SDS011;8498;52.516;13.790;2023-03-01T20:52:42;39.63;;;17.63;;
16760;SDS011;8498;52.516;13.790;2023-03-01T20:58:09;35.33;;;16.87;;
16760;SDS011;8498;52.516;13.790;2023-03-01T21:03:31;38.10;;;16.37;;
16760;SDS011;8498;52.516;13.790;2023-03-01T21:08:54;35.70;;;16.80;;
16760;SDS011;8498;52.516;13.790;2023-03-01T21:14:17;46.27;;;19.53;;
16760;SDS011;8498;52.516;13.790;2023-03-01T21:19:41;50.67;;;19.10;;
16760;SDS011;8498;52.516;13.790;2023-03-01T21:25:05;46.23;;;20.57;;
16760;SDS011;8498;52.516;13.790;2023-03-01T21:30:27;46.77;;;20.50;;
16760;SDS011;8498;52.516;13.790;2023-03-01T21:35:49;49.67;;;18.47;;
16760;SDS011;8498;52.516;13.790;2023-03-01T21:41:16;41.80;;;17.63;;
16760;SDS011;8498;52.516;13.790;2023-03-01T21:46:42;70.40;;;22.67;;
16760;SDS011;8498;52.516;13.790;2023-03-01T21:52:04;52.13;;;20.93;;
16760;SDS011;8498;52.516;13.790;2023-03-01T21:57:27;65.20;;;22.47;;
16760;SDS011;8498;52.516;13.790;2023-03-01T22:02:49;62.60;;;21.77;;
16760;SDS011;8498;52.516;13.790;2023-03-01T22:08:12;55.97;;;21.50;;
16760;SDS011;8498;52.516;13.790;2023-03-01T22:13:34;54.30;;;19.90;;
16760;SDS011;8498;52.516;13.790;2023-03-01T22:18:56;52.53;;;20.37;;
16760;SDS011;8498;52.516;13.790;2023-03-01T22:24:20;57.90;;;21.37;;
16760;SDS011;8498;52.516;13.790;2023-03-01T22:29:44;56.70;;;21.30;;
16760;SDS011;8498;52.516;13.790;2023-03-01T22:35:07;55.80;;;21.57;;
16760;SDS011;8498;52.516;13.790;2023-03-01T22:40:30;53.47;;;21.40;;
16760;SDS011;8498;52.516;13.790;2023-03-01T22:45:52;57.07;;;22.17;;
16760;SDS011;8498;52.516;13.790;2023-03-01T22:51:26;63.27;;;21.13;;
16760;SDS011;8498;52.516;13.790;2023-03-01T22:56:50;54.93;;;19.83;;
16760;SDS011;8498;52.516;13.790;2023-03-01T23:02:12;46.47;;;18.93;;
16760;SDS011;8498;52.516;13.790;2023-03-01T23:07:35;45.20;;;18.83;;
16760;SDS011;8498;52.516;13.790;2023-03-01T23:12:58;43.97;;;19.10;;
16760;SDS011;8498;52.516;13.790;2023-03-01T23:18:20;46.83;;;18.97;;
16760;SDS011;8498;52.516;13.790;2023-03-01T23:23:44;46.37;;;19.33;;
16760;SDS011;8498;52.516;13.790;2023-03-01T23:29:08;44.30;;;16.37;;
16760;SDS011;8498;52.516;13.790;2023-03-01T23:34:30;49.83;;;17.83;;
16760;SDS011;8498;52.516;13.790;2023-03-01T23:39:53;45.10;;;18.03;;
16760;SDS011;8498;52.516;13.790;2023-03-01T23:45:15;38.77;;;16.73;;
16760;SDS011;8498;52.516;13.790;2023-03-01T23:50:38;34.23;;;13.77;;
16760;SDS011;8498;52.516;13.790;2023-03-01T23:56:02;31.03;;;14.27;;
